sensor_id;sensor_type;location;lat;lon;timestamp;P1;durP1;ratioP1;P2;durP2;ratioP2
21546;SDS011;41275;51.912;4.388;2022-12-15T00:04:24;21.10;;;10.10;;
21546;SDS011;41275;51.912;4.388;2022-12-15T00:10:04;17.50;;;9.05;;
21546;SDS011;41275;51.912;4.388;2022-12-15T00:15:47;18.45;;;9.20;;
21546;SDS011;41275;51.912;4.388;2022-12-15T00:21:27;16.57;;;9.13;;
21546;SDS011;41275;51.912;4.388;2022-12-15T00:27:07;18.92;;;9.50;;
21546;SDS011;41275;51.912;4.388;2022-12-15T00:32:46;20.30;;;9.50;;
21546;SDS011;41275;51.912;4.388;2022-12-15T00:38:26;18.10;;;9.77;;
21546;SDS011;41275;51.912;4.388;2022-12-15T00:44:05;19.30;;;9.45;;
21546;SDS011;41275;51.912;4.388;2022-12-15T00:49:27;18.50;;;9.52;;
21546;SDS011;41275;51.912;4.388;2022-12-15T00:55:07;17.13;;;9.60;;
21546;SDS011;41275;51.912;4.388;2022-12-15T01:00:47;19.02;;;9.60;;
21546;SDS011;41275;51.912;4.388;2022-12-15T01:06:27;20.98;;;9.63;;
21546;SDS011;41275;51.912;4.388;2022-12-15T01:12:06;18.33;;;9.27;;
21546;SDS011;41275;51.912;4.388;2022-12-15T01:17:46;21.95;;;9.68;;
21546;SDS011;41275;51.912;4.388;2022-12-15T01:23:26;17.97;;;10.03;;
21546;SDS011;41275;51.912;4.388;2022-12-15T01:28:47;21.00;;;10.07;;
21546;SDS011;41275;51.912;4.388;2022-12-15T01:34:08;18.47;;;9.63;;
21546;SDS011;41275;51.912;4.388;2022-12-15T01:39:30;18.67;;;10.23;;
21546;SDS011;41275;51.912;4.388;2022-12-15T01:56:31;19.10;;;9.40;;
21546;SDS011;41275;51.912;4.388;2022-12-15T02:01:54;18.10;;;9.15;;
21546;SDS011;41275;51.912;4.388;2022-12-15T02:07:16;17.70;;;9.20;;
21546;SDS011;41275;51.912;4.388;2022-12-15T02:18:34;16.40;;;8.90;;
21546;SDS011;41275;51.912;4.388;2022-12-15T02:24:07;16.52;;;8.77;;
21546;SDS011;41275;51.912;4.388;2022-12-15T02:41:33;17.40;;;8.98;;
21546;SDS011;41275;51.912;4.388;2022-12-15T02:59:03;15.70;;;7.85;;
21546;SDS011;41275;51.912;4.388;2022-12-15T03:04:30;18.30;;;8.77;;
21546;SDS011;41275;51.912;4.388;2022-12-15T03:09:54;16.83;;;8.38;;
21546;SDS011;41275;51.912;4.388;2022-12-15T03:15:17;17.02;;;8.27;;
21546;SDS011;41275;51.912;4.388;2022-12-15T03:20:39;15.70;;;8.20;;
21546;SDS011;41275;51.912;4.388;2022-12-15T03:26:00;17.15;;;7.97;;
21546;SDS011;41275;51.912;4.388;2022-12-15T03:31:21;16.02;;;8.35;;
21546;SDS011;41275;51.912;4.388;2022-12-15T03:36:42;15.13;;;8.00;;
21546;SDS011;41275;51.912;4.388;2022-12-15T03:42:04;15.35;;;7.75;;
21546;SDS011;41275;51.912;4.388;2022-12-15T03:47:25;14.65;;;8.05;;
21546;SDS011;41275;51.912;4.388;2022-12-15T03:52:53;13.43;;;7.77;;
21546;SDS011;41275;51.912;4.388;2022-12-15T03:58:16;15.23;;;8.10;;
21546;SDS011;41275;51.912;4.388;2022-12-15T04:03:37;14.75;;;7.55;;
21546;SDS011;41275;51.912;4.388;2022-12-15T04:08:58;14.93;;;8.32;;
21546;SDS011;41275;51.912;4.388;2022-12-15T04:14:19;15.57;;;7.97;;
21546;SDS011;41275;51.912;4.388;2022-12-15T04:19:41;14.68;;;7.88;;
21546;SDS011;41275;51.912;4.388;2022-12-15T04:25:21;14.87;;;7.40;;
21546;SDS011;41275;51.912;4.388;2022-12-15T04:31:21;12.90;;;7.27;;
21546;SDS011;41275;51.912;4.388;2022-12-15T04:37:06;12.75;;;7.25;;
21546;SDS011;41275;51.912;4.388;2022-12-15T04:42:50;15.52;;;7.18;;
21546;SDS011;41275;51.912;4.388;2022-12-15T04:48:29;13.10;;;7.50;;
21546;SDS011;41275;51.912;4.388;2022-12-15T04:54:09;14.90;;;7.43;;
21546;SDS011;41275;51.912;4.388;2022-12-15T04:59:48;14.50;;;7.50;;
21546;SDS011;41275;51.912;4.388;2022-12-15T05:05:28;13.68;;;7.30;;
21546;SDS011;41275;51.912;4.388;2022-12-15T05:11:08;11.88;;;6.60;;
21546;SDS011;41275;51.912;4.388;2022-12-15T05:16:48;14.25;;;7.65;;
21546;SDS011;41275;51.912;4.388;2022-12-15T05:22:27;15.30;;;7.70;;
21546;SDS011;41275;51.912;4.388;2022-12-15T05:28:07;15.90;;;7.60;;
21546;SDS011;41275;51.912;4.388;2022-12-15T05:33:47;14.30;;;8.33;;
21546;SDS011;41275;51.912;4.388;2022-12-15T05:39:08;14.63;;;8.38;;
21546;SDS011;41275;51.912;4.388;2022-12-15T05:44:29;17.57;;;9.10;;
21546;SDS011;41275;51.912;4.388;2022-12-15T05:49:50;16.92;;;8.88;;
21546;SDS011;41275;51.912;4.388;2022-12-15T05:55:11;18.48;;;8.48;;
21546;SDS011;41275;51.912;4.388;2022-12-15T06:00:33;17.30;;;8.68;;
21546;SDS011;41275;51.912;4.388;2022-12-15T06:05:54;16.00;;;8.15;;
21546;SDS011;41275;51.912;4.388;2022-12-15T06:11:16;16.60;;;8.37;;
21546;SDS011;41275;51.912;4.388;2022-12-15T06:16:38;15.87;;;8.80;;
21546;SDS011;41275;51.912;4.388;2022-12-15T06:21:59;15.98;;;8.82;;
21546;SDS011;41275;51.912;4.388;2022-12-15T06:27:20;15.93;;;9.00;;
21546;SDS011;41275;51.912;4.388;2022-12-15T06:32:43;17.52;;;8.80;;
21546;SDS011;41275;51.912;4.388;2022-12-15T06:38:06;18.08;;;9.68;;
21546;SDS011;41275;51.912;4.388;2022-12-15T06:43:28;19.30;;;9.77;;
21546;SDS011;41275;51.912;4.388;2022-12-15T06:48:49;17.67;;;9.32;;
21546;SDS011;41275;51.912;4.388;2022-12-15T06:54:10;14.57;;;9.13;;
21546;SDS011;41275;51.912;4.388;2022-12-15T06:59:32;17.08;;;8.70;;
21546;SDS011;41275;51.912;4.388;2022-12-15T07:04:53;17.23;;;8.93;;
21546;SDS011;41275;51.912;4.388;2022-12-15T07:10:14;18.45;;;9.27;;
21546;SDS011;41275;51.912;4.388;2022-12-15T07:15:35;17.42;;;8.80;;
21546;SDS011;41275;51.912;4.388;2022-12-15T07:21:04;17.47;;;8.97;;
21546;SDS011;41275;51.912;4.388;2022-12-15T07:26:27;18.73;;;9.30;;
21546;SDS011;41275;51.912;4.388;2022-12-15T07:31:48;18.00;;;9.48;;
21546;SDS011;41275;51.912;4.388;2022-12-15T07:37:09;21.25;;;10.38;;
21546;SDS011;41275;51.912;4.388;2022-12-15T07:42:31;19.92;;;10.73;;
21546;SDS011;41275;51.912;4.388;2022-12-15T07:47:52;19.70;;;10.32;;
21546;SDS011;41275;51.912;4.388;2022-12-15T07:53:13;22.93;;;11.00;;
21546;SDS011;41275;51.912;4.388;2022-12-15T07:58:34;22.23;;;10.77;;
21546;SDS011;41275;51.912;4.388;2022-12-15T08:03:56;19.08;;;9.55;;
21546;SDS011;41275;51.912;4.388;2022-12-15T08:09:17;19.03;;;9.07;;
21546;SDS011;41275;51.912;4.388;2022-12-15T08:14:39;18.10;;;9.10;;
21546;SDS011;41275;51.912;4.388;2022-12-15T08:20:00;21.00;;;9.80;;
21546;SDS011;41275;51.912;4.388;2022-12-15T08:25:21;19.70;;;9.32;;
21546;SDS011;41275;51.912;4.388;2022-12-15T08:30:42;19.58;;;9.70;;
21546;SDS011;41275;51.912;4.388;2022-12-15T08:36:05;18.40;;;8.90;;
21546;SDS011;41275;51.912;4.388;2022-12-15T08:41:29;17.27;;;8.55;;
21546;SDS011;41275;51.912;4.388;2022-12-15T08:46:52;16.13;;;8.65;;
21546;SDS011;41275;51.912;4.388;2022-12-15T08:52:13;17.50;;;8.63;;
21546;SDS011;41275;51.912;4.388;2022-12-15T08:57:34;16.13;;;9.27;;
21546;SDS011;41275;51.912;4.388;2022-12-15T09:02:57;20.25;;;9.60;;
21546;SDS011;41275;51.912;4.388;2022-12-15T09:08:18;21.53;;;9.90;;
21546;SDS011;41275;51.912;4.388;2022-12-15T09:13:40;23.20;;;10.32;;
21546;SDS011;41275;51.912;4.388;2022-12-15T09:19:01;17.75;;;8.73;;
21546;SDS011;41275;51.912;4.388;2022-12-15T09:24:22;21.67;;;10.82;;
21546;SDS011;41275;51.912;4.388;2022-12-15T09:29:44;20.50;;;11.52;;
21546;SDS011;41275;51.912;4.388;2022-12-15T09:35:05;22.00;;;11.32;;
21546;SDS011;41275;51.912;4.388;2022-12-15T09:40:32;26.10;;;11.32;;
21546;SDS011;41275;51.912;4.388;2022-12-15T09:46:07;27.88;;;12.18;;
21546;SDS011;41275;51.912;4.388;2022-12-15T09:51:45;34.20;;;15.57;;
21546;SDS011;41275;51.912;4.388;2022-12-15T09:57:57;30.33;;;13.00;;
21546;SDS011;41275;51.912;4.388;2022-12-15T10:03:14;38.70;;;16.95;;
21546;SDS011;41275;51.912;4.388;2022-12-15T10:08:52;45.70;;;18.37;;
21546;SDS011;41275;51.912;4.388;2022-12-15T10:14:25;28.57;;;13.23;;
21546;SDS011;41275;51.912;4.388;2022-12-15T10:25:38;26.50;;;11.87;;
21546;SDS011;41275;51.912;4.388;2022-12-15T10:31:12;23.98;;;11.85;;
21546;SDS011;41275;51.912;4.388;2022-12-15T10:36:49;37.97;;;16.10;;
21546;SDS011;41275;51.912;4.388;2022-12-15T10:42:22;26.77;;;12.23;;
21546;SDS011;41275;51.912;4.388;2022-12-15T10:47:44;20.00;;;10.40;;
21546;SDS011;41275;51.912;4.388;2022-12-15T10:59:19;15.73;;;7.82;;
21546;SDS011;41275;51.912;4.388;2022-12-15T11:10:36;19.80;;;7.10;;
21546;SDS011;41275;51.912;4.388;2022-12-15T11:16:27;11.07;;;5.28;;
21546;SDS011;41275;51.912;4.388;2022-12-15T11:21:52;12.55;;;5.65;;
21546;SDS011;41275;51.912;4.388;2022-12-15T11:27:32;13.82;;;4.75;;
21546;SDS011;41275;51.912;4.388;2022-12-15T11:32:58;10.00;;;3.88;;
21546;SDS011;41275;51.912;4.388;2022-12-15T11:43:51;11.00;;;4.03;;
21546;SDS011;41275;51.912;4.388;2022-12-15T11:49:27;10.37;;;4.20;;
21546;SDS011;41275;51.912;4.388;2022-12-15T11:55:06;10.05;;;4.07;;
21546;SDS011;41275;51.912;4.388;2022-12-15T12:17:57;8.87;;;4.03;;
21546;SDS011;41275;51.912;4.388;2022-12-15T12:23:27;6.73;;;3.57;;
21546;SDS011;41275;51.912;4.388;2022-12-15T12:28:50;7.03;;;3.60;;
21546;SDS011;41275;51.912;4.388;2022-12-15T12:39:52;6.78;;;2.92;;
21546;SDS011;41275;51.912;4.388;2022-12-15T12:45:23;6.68;;;2.60;;
21546;SDS011;41275;51.912;4.388;2022-12-15T12:51:15;10.27;;;2.60;;
21546;SDS011;41275;51.912;4.388;2022-12-15T12:56:41;8.20;;;2.10;;
21546;SDS011;41275;51.912;4.388;2022-12-15T13:07:35;5.28;;;1.70;;
21546;SDS011;41275;51.912;4.388;2022-12-15T13:13:14;5.23;;;1.50;;
21546;SDS011;41275;51.912;4.388;2022-12-15T13:18:54;4.28;;;0.90;;
21546;SDS011;41275;51.912;4.388;2022-12-15T13:35:30;4.50;;;0.90;;
21546;SDS011;41275;51.912;4.388;2022-12-15T13:40:54;8.20;;;1.67;;
21546;SDS011;41275;51.912;4.388;2022-12-15T13:46:19;4.15;;;1.55;;
21546;SDS011;41275;51.912;4.388;2022-12-15T13:51:44;12.23;;;1.98;;
21546;SDS011;41275;51.912;4.388;2022-12-15T13:57:08;9.20;;;2.00;;
21546;SDS011;41275;51.912;4.388;2022-12-15T14:02:33;8.00;;;2.13;;
21546;SDS011;41275;51.912;4.388;2022-12-15T14:07:56;6.88;;;2.03;;
21546;SDS011;41275;51.912;4.388;2022-12-15T14:13:30;5.95;;;1.67;;
21546;SDS011;41275;51.912;4.388;2022-12-15T14:19:13;5.60;;;2.10;;
21546;SDS011;41275;51.912;4.388;2022-12-15T14:24:41;8.10;;;1.92;;
21546;SDS011;41275;51.912;4.388;2022-12-15T14:30:11;6.75;;;1.90;;
21546;SDS011;41275;51.912;4.388;2022-12-15T14:35:48;12.32;;;4.72;;
21546;SDS011;41275;51.912;4.388;2022-12-15T14:41:19;7.25;;;1.90;;
21546;SDS011;41275;51.912;4.388;2022-12-15T14:46:44;11.35;;;2.35;;
21546;SDS011;41275;51.912;4.388;2022-12-15T14:52:15;6.20;;;1.63;;
21546;SDS011;41275;51.912;4.388;2022-12-15T14:57:43;5.88;;;1.70;;
21546;SDS011;41275;51.912;4.388;2022-12-15T15:08:46;7.32;;;2.22;;
21546;SDS011;41275;51.912;4.388;2022-12-15T15:14:13;6.60;;;2.65;;
21546;SDS011;41275;51.912;4.388;2022-12-15T15:20:14;7.45;;;2.70;;
21546;SDS011;41275;51.912;4.388;2022-12-15T15:25:33;6.00;;;2.07;;
21546;SDS011;41275;51.912;4.388;2022-12-15T15:30:59;6.97;;;2.53;;
21546;SDS011;41275;51.912;4.388;2022-12-15T15:36:28;7.03;;;2.22;;
21546;SDS011;41275;51.912;4.388;2022-12-15T15:41:54;8.20;;;2.83;;
21546;SDS011;41275;51.912;4.388;2022-12-15T15:47:24;8.88;;;3.03;;
21546;SDS011;41275;51.912;4.388;2022-12-15T15:52:46;6.82;;;2.70;;
21546;SDS011;41275;51.912;4.388;2022-12-15T15:58:11;10.77;;;3.13;;
21546;SDS011;41275;51.912;4.388;2022-12-15T16:03:33;33.63;;;13.40;;
21546;SDS011;41275;51.912;4.388;2022-12-15T16:08:55;22.88;;;9.40;;
21546;SDS011;41275;51.912;4.388;2022-12-15T16:14:16;24.43;;;11.57;;
21546;SDS011;41275;51.912;4.388;2022-12-15T16:19:38;19.27;;;9.43;;
21546;SDS011;41275;51.912;4.388;2022-12-15T16:24:59;19.03;;;9.23;;
21546;SDS011;41275;51.912;4.388;2022-12-15T16:30:22;27.83;;;10.73;;
21546;SDS011;41275;51.912;4.388;2022-12-15T16:35:45;25.20;;;9.98;;
21546;SDS011;41275;51.912;4.388;2022-12-15T16:41:10;24.70;;;13.57;;
21546;SDS011;41275;51.912;4.388;2022-12-15T16:46:34;20.88;;;11.25;;
21546;SDS011;41275;51.912;4.388;2022-12-15T16:51:56;21.80;;;11.70;;
21546;SDS011;41275;51.912;4.388;2022-12-15T16:57:18;23.95;;;12.65;;
21546;SDS011;41275;51.912;4.388;2022-12-15T17:02:39;21.23;;;12.30;;
21546;SDS011;41275;51.912;4.388;2022-12-15T17:08:03;23.23;;;12.77;;
21546;SDS011;41275;51.912;4.388;2022-12-15T17:13:26;25.00;;;15.05;;
21546;SDS011;41275;51.912;4.388;2022-12-15T17:18:51;28.07;;;15.10;;
21546;SDS011;41275;51.912;4.388;2022-12-15T17:24:13;31.70;;;17.40;;
21546;SDS011;41275;51.912;4.388;2022-12-15T17:29:35;38.33;;;21.27;;
21546;SDS011;41275;51.912;4.388;2022-12-15T17:34:56;35.88;;;20.42;;
21546;SDS011;41275;51.912;4.388;2022-12-15T17:40:22;37.63;;;17.87;;
21546;SDS011;41275;51.912;4.388;2022-12-15T17:45:43;31.30;;;18.90;;
21546;SDS011;41275;51.912;4.388;2022-12-15T17:51:09;30.70;;;18.50;;
21546;SDS011;41275;51.912;4.388;2022-12-15T17:56:34;32.37;;;18.90;;
21546;SDS011;41275;51.912;4.388;2022-12-15T18:01:55;12.98;;;6.05;;
21546;SDS011;41275;51.912;4.388;2022-12-15T18:07:17;8.07;;;2.90;;
21546;SDS011;41275;51.912;4.388;2022-12-15T18:12:40;6.07;;;1.80;;
21546;SDS011;41275;51.912;4.388;2022-12-15T18:18:01;6.20;;;2.63;;
21546;SDS011;41275;51.912;4.388;2022-12-15T18:23:23;12.70;;;4.97;;
21546;SDS011;41275;51.912;4.388;2022-12-15T18:28:45;9.73;;;3.17;;
21546;SDS011;41275;51.912;4.388;2022-12-15T18:34:13;57.43;;;25.83;;
21546;SDS011;41275;51.912;4.388;2022-12-15T18:39:36;23.75;;;9.68;;
21546;SDS011;41275;51.912;4.388;2022-12-15T18:44:57;15.23;;;7.70;;
21546;SDS011;41275;51.912;4.388;2022-12-15T18:50:21;11.07;;;4.85;;
21546;SDS011;41275;51.912;4.388;2022-12-15T18:55:44;13.95;;;6.07;;
21546;SDS011;41275;51.912;4.388;2022-12-15T19:01:07;17.95;;;9.60;;
21546;SDS011;41275;51.912;4.388;2022-12-15T19:06:30;35.40;;;17.80;;
21546;SDS011;41275;51.912;4.388;2022-12-15T19:11:55;23.70;;;11.73;;
21546;SDS011;41275;51.912;4.388;2022-12-15T19:17:35;22.40;;;11.70;;
21546;SDS011;41275;51.912;4.388;2022-12-15T19:23:15;36.45;;;16.08;;
21546;SDS011;41275;51.912;4.388;2022-12-15T19:28:36;32.58;;;15.93;;
21546;SDS011;41275;51.912;4.388;2022-12-15T19:33:58;15.85;;;7.85;;
21546;SDS011;41275;51.912;4.388;2022-12-15T19:39:20;16.70;;;8.57;;
21546;SDS011;41275;51.912;4.388;2022-12-15T19:44:44;18.48;;;8.95;;
21546;SDS011;41275;51.912;4.388;2022-12-15T19:50:05;19.20;;;10.77;;
21546;SDS011;41275;51.912;4.388;2022-12-15T19:55:30;26.00;;;14.40;;
21546;SDS011;41275;51.912;4.388;2022-12-15T20:00:55;22.60;;;12.20;;
21546;SDS011;41275;51.912;4.388;2022-12-15T20:06:25;23.95;;;12.82;;
21546;SDS011;41275;51.912;4.388;2022-12-15T20:11:47;28.27;;;12.77;;
21546;SDS011;41275;51.912;4.388;2022-12-15T20:17:08;61.50;;;22.57;;
21546;SDS011;41275;51.912;4.388;2022-12-15T20:22:29;29.58;;;12.38;;
21546;SDS011;41275;51.912;4.388;2022-12-15T20:27:50;21.30;;;8.55;;
21546;SDS011;41275;51.912;4.388;2022-12-15T20:33:12;17.90;;;9.40;;
21546;SDS011;41275;51.912;4.388;2022-12-15T20:38:33;17.52;;;8.00;;
21546;SDS011;41275;51.912;4.388;2022-12-15T20:43:55;17.30;;;8.77;;
21546;SDS011;41275;51.912;4.388;2022-12-15T20:49:19;17.42;;;8.63;;
21546;SDS011;41275;51.912;4.388;2022-12-15T20:54:41;20.30;;;9.40;;
21546;SDS011;41275;51.912;4.388;2022-12-15T21:00:03;19.48;;;10.15;;
21546;SDS011;41275;51.912;4.388;2022-12-15T21:05:25;17.03;;;8.07;;
21546;SDS011;41275;51.912;4.388;2022-12-15T21:10:46;15.50;;;8.27;;
21546;SDS011;41275;51.912;4.388;2022-12-15T21:16:12;23.80;;;10.77;;
21546;SDS011;41275;51.912;4.388;2022-12-15T21:21:36;24.75;;;12.52;;
21546;SDS011;41275;51.912;4.388;2022-12-15T21:27:00;12.57;;;6.63;;
21546;SDS011;41275;51.912;4.388;2022-12-15T21:32:21;16.00;;;5.68;;
21546;SDS011;41275;51.912;4.388;2022-12-15T21:37:46;11.07;;;4.30;;
21546;SDS011;41275;51.912;4.388;2022-12-15T21:43:11;15.27;;;4.30;;
21546;SDS011;41275;51.912;4.388;2022-12-15T21:48:32;16.80;;;4.70;;
21546;SDS011;41275;51.912;4.388;2022-12-15T21:54:16;11.87;;;4.10;;
21546;SDS011;41275;51.912;4.388;2022-12-15T21:59:38;10.38;;;3.63;;
21546;SDS011;41275;51.912;4.388;2022-12-15T22:05:00;12.45;;;3.75;;
21546;SDS011;41275;51.912;4.388;2022-12-15T22:10:22;11.77;;;3.70;;
21546;SDS011;41275;51.912;4.388;2022-12-15T22:15:44;11.77;;;3.80;;
21546;SDS011;41275;51.912;4.388;2022-12-15T22:21:06;10.80;;;4.35;;
21546;SDS011;41275;51.912;4.388;2022-12-15T22:26:28;12.73;;;5.20;;
21546;SDS011;41275;51.912;4.388;2022-12-15T22:31:51;9.48;;;3.83;;
21546;SDS011;41275;51.912;4.388;2022-12-15T22:37:12;11.07;;;3.28;;
21546;SDS011;41275;51.912;4.388;2022-12-15T22:42:33;12.40;;;3.00;;
21546;SDS011;41275;51.912;4.388;2022-12-15T22:47:55;8.20;;;2.75;;
21546;SDS011;41275;51.912;4.388;2022-12-15T22:53:17;7.67;;;2.90;;
21546;SDS011;41275;51.912;4.388;2022-12-15T22:58:40;6.43;;;2.88;;
21546;SDS011;41275;51.912;4.388;2022-12-15T23:04:04;7.72;;;2.75;;
21546;SDS011;41275;51.912;4.388;2022-12-15T23:09:26;7.13;;;2.80;;
21546;SDS011;41275;51.912;4.388;2022-12-15T23:14:47;7.20;;;2.63;;
21546;SDS011;41275;51.912;4.388;2022-12-15T23:20:26;8.43;;;2.63;;
21546;SDS011;41275;51.912;4.388;2022-12-15T23:25:47;9.23;;;2.88;;
21546;SDS011;41275;51.912;4.388;2022-12-15T23:31:09;7.60;;;2.60;;
21546;SDS011;41275;51.912;4.388;2022-12-15T23:36:30;4.43;;;1.60;;
21546;SDS011;41275;51.912;4.388;2022-12-15T23:41:51;6.70;;;1.75;;
21546;SDS011;41275;51.912;4.388;2022-12-15T23:47:13;7.93;;;1.67;;
21546;SDS011;41275;51.912;4.388;2022-12-15T23:52:35;5.77;;;1.40;;
21546;SDS011;41275;51.912;4.388;2022-12-15T23:57:56;5.78;;;1.23;;
